Pilot Knob, Illinois
Current Conditions -  °F | °C
As of 11:35 PM on Saturday 25 Oct 2014 (Local Time) from KSAR Reporting Station
Clear Clear  
Wind Chill: 59°   Ceiling: Unl
Heat Index: 59°   Visibility: 10mi
Dew Point: 55°   Wind: 0mph
Humidity: 84%   Direction: NA
Pressure: 30.02"   Gusts: NA
Location:  38.318°N, 89.3879°W
Report Text: KSAR 260435Z AUTO 00000KT 10SM CLR 15/13 A3002 RMK AO2 T01510125
Loading
Personal Weather Stations






























Interactive Weather Map New forecast layout! Learn more

10-Day Weather Forecast

Advertisements
Track Severe Weather on mobile